Time;durP1;ratioP1;P1;durP2;ratioP2;P2;SDS_P1;SDS_P2;PMS_P1;PMS_P2;Temp;Humidity;BMP_temperature;BMP_pressure;BME280_temperature;BME280_humidity;BME280_pressure;Samples;Min_cycle;Max_cycle;Signal;HPM_P1;HPM_P2
2023/11/23 00:00:31;;;;;;;;;;;;;;;3.72;58.90;100846.59;4397024;32;33258;-88
2023/11/23 00:02:58;;;;;;;;;;;;;;;3.80;58.60;100850.97;4406733;32;33369;-88
2023/11/23 00:05:28;;;;;;;;;;;;;;;3.76;58.73;100853.56;4404042;32;33529;-88
2023/11/23 00:07:55;;;;;;;;;;;;;;;3.83;58.34;100855.31;4402101;32;33284;-88
2023/11/23 00:10:23;;;;;;;;;;;;;;;3.84;58.23;100868.38;4408052;32;32520;-90
2023/11/23 00:12:51;;;;;;;;;;;;;;;4.14;56.85;100871.00;4388027;32;32957;-88
2023/11/23 00:15:18;;;;;;;;;;;;;;;3.87;57.81;100882.31;4408415;32;34093;-89
2023/11/23 00:17:47;;;;;;;;;;;;;;;3.65;59.01;100869.22;4418363;32;33570;-88
2023/11/23 00:20:15;;;;;;;;;;;;;;;3.80;58.34;100866.66;4408272;32;33888;-89
2023/11/23 00:22:43;;;;;;;;;;;;;;;3.94;57.69;100852.69;4407892;32;35619;-89
2023/11/23 00:25:14;;;;;;;;;;;;;;;3.89;57.78;100843.97;4414538;32;33982;-88
2023/11/23 00:27:41;;;;;;;;;;;;;;;3.69;58.19;100842.22;4385127;32;32881;-89
2023/11/23 00:30:09;;;;;;;;;;;;;;;3.66;58.31;100846.59;4409513;32;32513;-89
2023/11/23 00:32:36;;;;;;;;;;;;;;;3.83;58.38;100837.03;4391506;32;32926;-89
2023/11/23 00:35:04;;;;;;;;;;;;;;;3.85;58.02;100841.41;4404631;32;34210;-89
2023/11/23 00:37:32;;;;;;;;;;;;;;;3.42;59.40;100855.25;4411508;32;35192;-90
2023/11/23 00:40:00;;;;;;;;;;;;;;;3.51;59.07;100858.78;4408274;32;33520;-90
2023/11/23 00:42:28;;;;;;;;;;;;;;;3.54;59.36;100853.53;4407640;32;33713;-90
2023/11/23 00:44:56;;;;;;;;;;;;;;;3.56;58.76;100841.38;4389321;32;33218;-90
2023/11/23 00:47:24;;;;;;;;;;;;;;;3.57;58.83;100843.09;4413125;32;34160;-89
2023/11/23 00:49:53;;;;;;;;;;;;;;;3.70;58.37;100837.88;4388836;32;32786;-90
2023/11/23 00:52:21;;;;;;;;;;;;;;;3.74;57.74;100843.09;4408006;32;33088;-90
2023/11/23 00:54:48;;;;;;;;;;;;;;;3.67;58.08;100843.97;4393524;32;33166;-88
2023/11/23 00:57:15;;;;;;;;;;;;;;;3.59;58.42;100838.75;4415170;32;34204;-88
2023/11/23 00:59:43;;;;;;;;;;;;;;;3.51;59.17;100836.97;4391008;32;31915;-87
2023/11/23 01:02:11;;;;;;;;;;;;;;;3.47;59.24;100836.13;4393465;32;33176;-88
2023/11/23 01:04:38;;;;;;;;;;;;;;;3.64;58.01;100835.28;4414944;32;33471;-87
2023/11/23 01:07:06;;;;;;;;;;;;;;;3.93;57.17;100840.50;4414677;32;34111;-88
2023/11/23 01:09:34;;;;;;;;;;;;;;;3.57;58.11;100830.06;4393384;32;32927;-88
2023/11/23 01:12:01;;;;;;;;;;;;;;;3.76;57.55;100827.47;4400061;32;32963;-88
2023/11/23 01:14:29;;;;;;;;;;;;;;;3.64;58.07;100828.31;4421751;32;34922;-88
2023/11/23 01:16:57;;;;;;;;;;;;;;;3.95;56.72;100823.97;4401355;32;35019;-87
2023/11/23 01:19:24;;;;;;;;;;;;;;;3.43;58.32;100818.72;4406987;32;32975;-88
2023/11/23 01:21:52;;;;;;;;;;;;;;;3.50;58.39;100815.22;4390776;32;33359;-88
2023/11/23 01:24:19;;;;;;;;;;;;;;;3.53;57.86;100806.53;4407547;32;33777;-87
2023/11/23 01:26:48;;;;;;;;;;;;;;;3.54;58.06;100816.09;4406087;32;34937;-88
2023/11/23 01:29:17;;;;;;;;;;;;;;;3.37;58.76;100823.94;4389074;32;32387;-88
2023/11/23 01:31:45;;;;;;;;;;;;;;;3.44;58.22;100820.44;4389405;32;34295;-88
2023/11/23 01:34:13;;;;;;;;;;;;;;;3.33;58.60;100820.44;4407877;32;33886;-87
2023/11/23 01:36:40;;;;;;;;;;;;;;;3.25;58.93;100832.59;4396435;32;33719;-87
2023/11/23 01:39:09;;;;;;;;;;;;;;;3.16;59.17;100829.94;4409055;32;33229;-87
2023/11/23 01:41:36;;;;;;;;;;;;;;;3.12;59.35;100827.31;4410292;32;32719;-87
2023/11/23 01:44:04;;;;;;;;;;;;;;;2.95;59.68;100832.50;4410922;32;34149;-86
2023/11/23 01:46:31;;;;;;;;;;;;;;;2.96;59.90;100836.84;4395895;32;34448;-86
2023/11/23 01:48:59;;;;;;;;;;;;;;;2.94;59.83;100833.34;4405111;32;33672;-86
2023/11/23 01:51:26;;;;;;;;;;;;;;;3.00;59.64;100826.44;4411230;32;34212;-86
2023/11/23 01:53:54;;;;;;;;;;;;;;;2.91;60.02;100828.12;4398344;32;32989;-87
2023/11/23 01:56:21;;;;;;;;;;;;;;;3.05;59.66;100829.06;4395371;32;32614;-87
2023/11/23 01:58:48;;;;;;;;;;;;;;;2.65;61.00;100836.69;4408347;32;32564;-86
2023/11/23 02:01:16;;;;;;;;;;;;;;;2.92;60.42;100832.47;4408124;32;32589;-87
2023/11/23 02:03:44;;;;;;;;;;;;;;;3.44;58.49;100817.84;4408220;32;33275;-86
2023/11/23 02:06:12;;;;;;;;;;;;;;;3.24;58.55;100829.97;4407991;32;34222;-87
2023/11/23 02:08:39;;;;;;;;;;;;;;;3.33;58.91;100828.25;4410890;32;32579;-86
2023/11/23 02:11:07;;;;;;;;;;;;;;;3.21;58.91;100825.62;4410546;32;34805;-86
2023/11/23 02:13:34;;;;;;;;;;;;;;;3.44;58.62;100815.22;4387791;32;34182;-87
2023/11/23 02:16:03;;;;;;;;;;;;;;;3.66;57.42;100816.13;4405309;32;35026;-87
2023/11/23 02:18:39;;;;;;;;;;;;;;;3.51;57.91;100809.16;4389062;32;33583;-88
2023/11/23 02:21:07;;;;;;;;;;;;;;;3.29;58.27;100810.84;4388055;32;32643;-87
2023/11/23 02:23:34;;;;;;;;;;;;;;;2.91;59.56;100812.47;4407965;32;34068;-87
2023/11/23 02:26:02;;;;;;;;;;;;;;;3.11;59.27;100807.31;4390967;32;34152;-87
2023/11/23 02:28:31;;;;;;;;;;;;;;;3.27;58.75;100802.13;4412636;32;31899;-87
2023/11/23 02:30:59;;;;;;;;;;;;;;;3.07;59.54;100801.22;4409418;32;33582;-87
2023/11/23 02:33:28;;;;;;;;;;;;;;;3.42;58.67;100797.81;4413951;32;34201;-87
2023/11/23 02:35:55;;;;;;;;;;;;;;;3.42;58.26;100806.53;4390384;32;36379;-87
2023/11/23 02:38:23;;;;;;;;;;;;;;;3.56;57.81;100803.91;4412620;32;32583;-87
2023/11/23 02:40:50;;;;;;;;;;;;;;;3.67;57.45;100796.97;4409025;32;33973;-87
2023/11/23 02:43:18;;;;;;;;;;;;;;;3.70;57.08;100791.72;4407962;32;33415;-88
2023/11/23 02:45:45;;;;;;;;;;;;;;;3.64;57.46;100793.47;4389633;32;33587;-88
2023/11/23 02:48:13;;;;;;;;;;;;;;;3.74;57.11;100788.25;4408579;32;33154;-87
2023/11/23 02:50:41;;;;;;;;;;;;;;;3.32;57.43;100787.38;4402204;32;34785;-86
2023/11/23 02:53:27;;;;;;;;;;;;;;;3.43;58.01;100791.75;4402363;32;33831;-89
2023/11/23 02:55:55;;;;;;;;;;;;;;;3.73;56.78;100796.09;4411013;32;34149;-89
2023/11/23 02:58:22;;;;;;;;;;;;;;;3.49;57.73;100790.00;4395719;32;32700;-89
2023/11/23 03:00:51;;;;;;;;;;;;;;;3.74;57.04;100782.16;4412550;32;34935;-87
2023/11/23 03:03:19;;;;;;;;;;;;;;;3.43;57.84;100781.28;4410162;32;33775;-87
2023/11/23 03:05:46;;;;;;;;;;;;;;;3.31;58.81;100775.16;4397883;32;33961;-87
2023/11/23 03:08:14;;;;;;;;;;;;;;;3.30;58.91;100764.72;4407780;32;33514;-87
2023/11/23 03:10:41;;;;;;;;;;;;;;;3.55;58.17;100757.78;4395443;32;33328;-87
2023/11/23 03:13:09;;;;;;;;;;;;;;;3.91;56.99;100756.03;4394388;32;33229;-87
2023/11/23 03:15:36;;;;;;;;;;;;;;;3.75;57.37;100758.66;4406059;32;33470;-89
2023/11/23 03:18:04;;;;;;;;;;;;;;;3.79;57.10;100755.16;4396956;32;33546;-89
2023/11/23 03:20:31;;;;;;;;;;;;;;;3.62;57.12;100759.53;4407262;32;33895;-89
2023/11/23 03:22:59;;;;;;;;;;;;;;;3.41;57.98;100756.91;4421945;32;34914;-89
2023/11/23 03:25:26;;;;;;;;;;;;;;;3.78;57.07;100758.66;4401062;32;33863;-89
2023/11/23 03:27:55;;;;;;;;;;;;;;;3.72;57.36;100750.81;4390799;32;32142;-90
2023/11/23 03:30:23;;;;;;;;;;;;;;;3.75;57.13;100742.09;4409561;32;34066;-89
2023/11/23 03:32:51;;;;;;;;;;;;;;;3.48;56.80;100741.25;4397015;32;32523;-89
2023/11/23 03:35:19;;;;;;;;;;;;;;;3.48;57.56;100743.00;4414564;32;34232;-89
2023/11/23 03:37:47;;;;;;;;;;;;;;;3.43;57.88;100742.13;4395079;32;32524;-89
2023/11/23 03:40:17;;;;;;;;;;;;;;;3.67;56.96;100736.03;4396503;32;33023;-89
2023/11/23 03:42:44;;;;;;;;;;;;;;;3.70;57.07;100730.78;4397205;32;33011;-87
2023/11/23 03:45:11;;;;;;;;;;;;;;;3.79;56.49;100734.25;4395628;32;33659;-87
2023/11/23 03:47:39;;;;;;;;;;;;;;;3.71;56.87;100736.03;4386472;32;34029;-87
2023/11/23 03:50:06;;;;;;;;;;;;;;;3.76;56.68;100729.06;4396725;32;33776;-87
2023/11/23 03:52:34;;;;;;;;;;;;;;;3.85;56.41;100738.63;4404679;32;34046;-87
2023/11/23 03:55:02;;;;;;;;;;;;;;;3.76;56.36;100736.03;4411664;32;34126;-86
2023/11/23 03:57:30;;;;;;;;;;;;;;;3.63;56.54;100737.75;4389900;32;32734;-87
2023/11/23 03:59:57;;;;;;;;;;;;;;;3.44;57.28;100733.41;4410059;32;34138;-88
2023/11/23 04:02:25;;;;;;;;;;;;;;;3.32;57.58;100745.59;4394605;32;34281;-87
2023/11/23 04:04:53;;;;;;;;;;;;;;;3.30;57.93;100743.84;4384178;32;33780;-88
2023/11/23 04:07:20;;;;;;;;;;;;;;;3.18;58.70;100744.72;4382020;32;33155;-88
2023/11/23 04:09:47;;;;;;;;;;;;;;;3.45;57.46;100745.59;4382398;32;33218;-88
2023/11/23 04:12:15;;;;;;;;;;;;;;;3.38;57.72;100741.25;4382369;32;33921;-88
2023/11/23 04:14:42;;;;;;;;;;;;;;;3.55;57.23;100747.34;4393665;32;33454;-88
2023/11/23 04:17:10;;;;;;;;;;;;;;;3.62;56.87;100756.94;4408993;32;34360;-88
2023/11/23 04:19:38;;;;;;;;;;;;;;;3.53;57.25;100759.53;4392709;32;33368;-89
2023/11/23 04:22:06;;;;;;;;;;;;;;;3.32;57.50;100758.66;4417721;32;33113;-88
2023/11/23 04:24:37;;;;;;;;;;;;;;;3.26;58.21;100763.84;4397455;32;33501;-88
2023/11/23 04:27:05;;;;;;;;;;;;;;;3.53;57.49;100767.38;4398177;32;33104;-88
2023/11/23 04:29:33;;;;;;;;;;;;;;;3.64;56.56;100765.63;4391195;32;32872;-87
2023/11/23 04:32:00;;;;;;;;;;;;;;;3.51;57.58;100763.88;4397350;32;32839;-88
2023/11/23 04:34:28;;;;;;;;;;;;;;;3.58;56.81;100755.19;4391342;32;33734;-88
2023/11/23 04:36:55;;;;;;;;;;;;;;;3.38;57.92;100767.38;4394906;32;33497;-87
2023/11/23 04:39:22;;;;;;;;;;;;;;;3.34;57.71;100754.28;4407387;32;34480;-88
2023/11/23 04:41:50;;;;;;;;;;;;;;;3.50;57.33;100763.00;4403799;32;34166;-88
2023/11/23 04:44:17;;;;;;;;;;;;;;;3.47;57.80;100768.25;4396542;32;33376;-88
2023/11/23 04:46:45;;;;;;;;;;;;;;;3.62;56.97;100759.53;4396597;32;33653;-88
2023/11/23 04:49:12;;;;;;;;;;;;;;;3.55;57.66;100770.84;4392468;32;34181;-88
2023/11/23 04:51:40;;;;;;;;;;;;;;;3.56;57.56;100772.56;4409536;32;33348;-87
2023/11/23 04:54:07;;;;;;;;;;;;;;;3.71;56.98;100767.38;4393984;32;33420;-88
2023/11/23 04:56:35;;;;;;;;;;;;;;;3.76;56.80;100770.84;4395727;32;32889;-88
2023/11/23 04:59:02;;;;;;;;;;;;;;;3.63;56.98;100771.72;4397119;32;33940;-88
2023/11/23 05:01:30;;;;;;;;;;;;;;;3.68;56.70;100772.59;4408652;32;33566;-89
2023/11/23 05:03:58;;;;;;;;;;;;;;;3.75;56.41;100771.72;4405818;32;34084;-88
2023/11/23 05:06:29;;;;;;;;;;;;;;;3.68;56.73;100769.97;4396493;32;33710;-88
2023/11/23 05:08:56;;;;;;;;;;;;;;;3.55;56.70;100770.84;4386422;32;33635;-88
2023/11/23 05:11:24;;;;;;;;;;;;;;;3.69;56.93;100769.09;4411285;32;33689;-88
2023/11/23 05:13:51;;;;;;;;;;;;;;;3.42;57.92;100775.19;4413756;32;34512;-89
2023/11/23 05:16:19;;;;;;;;;;;;;;;3.58;57.35;100776.94;4406644;32;32558;-87
2023/11/23 05:18:46;;;;;;;;;;;;;;;3.43;57.57;100786.50;4397799;32;33498;-87
2023/11/23 05:21:14;;;;;;;;;;;;;;;3.49;57.96;100783.91;4398660;32;32650;-87
2023/11/23 05:23:41;;;;;;;;;;;;;;;3.54;57.60;100779.56;4398498;32;34388;-87
2023/11/23 05:26:09;;;;;;;;;;;;;;;3.75;57.07;100791.72;4408330;32;33133;-87
2023/11/23 05:28:36;;;;;;;;;;;;;;;3.75;57.00;100795.25;4396104;32;32939;-87
2023/11/23 05:31:03;;;;;;;;;;;;;;;3.72;56.91;100783.91;4411193;32;34884;-87
2023/11/23 05:33:31;;;;;;;;;;;;;;;3.69;57.27;100782.16;4408792;32;35003;-89
2023/11/23 05:35:58;;;;;;;;;;;;;;;3.65;57.45;100780.41;4398584;32;32195;-88
2023/11/23 05:38:26;;;;;;;;;;;;;;;3.52;57.98;100770.84;4386763;32;32383;-87
2023/11/23 05:40:54;;;;;;;;;;;;;;;3.61;57.29;100776.09;4394306;32;33097;-87
2023/11/23 05:43:22;;;;;;;;;;;;;;;3.55;57.53;100786.50;4395458;32;33235;-86
2023/11/23 05:45:49;;;;;;;;;;;;;;;3.22;58.28;100780.38;4391850;32;32008;-87
2023/11/23 05:48:17;;;;;;;;;;;;;;;3.39;58.16;100780.41;4411483;32;34003;-88
2023/11/23 05:50:44;;;;;;;;;;;;;;;3.39;58.10;100795.22;4408431;32;33875;-88
2023/11/23 05:53:11;;;;;;;;;;;;;;;3.33;58.62;100783.88;4407617;32;34294;-88
2023/11/23 05:55:39;;;;;;;;;;;;;;;3.38;58.77;100781.28;4416727;32;33149;-87
2023/11/23 05:58:06;;;;;;;;;;;;;;;3.34;58.58;100787.38;4416054;32;34225;-87
2023/11/23 06:00:34;;;;;;;;;;;;;;;3.38;58.52;100783.03;4408313;32;33645;-87
2023/11/23 06:03:01;;;;;;;;;;;;;;;3.74;57.31;100780.41;4417267;32;34153;-87
2023/11/23 06:05:30;;;;;;;;;;;;;;;3.60;57.17;100776.94;4398857;32;33470;-87
2023/11/23 06:07:57;;;;;;;;;;;;;;;3.57;57.33;100782.19;4414948;32;32678;-87
2023/11/23 06:10:25;;;;;;;;;;;;;;;3.70;57.10;100772.56;4406581;32;34152;-88
2023/11/23 06:12:54;;;;;;;;;;;;;;;3.67;57.02;100776.06;4409805;32;33471;-88
2023/11/23 06:15:26;;;;;;;;;;;;;;;3.50;57.32;100783.03;4402694;32;32813;-89
2023/11/23 06:17:54;;;;;;;;;;;;;;;3.30;58.80;100783.88;4399894;32;33198;-89
2023/11/23 06:20:39;;;;;;;;;;;;;;;3.53;58.12;100794.34;4411152;32;33755;-88
2023/11/23 06:23:08;;;;;;;;;;;;;;;3.49;58.24;100802.19;4413547;32;33252;-88
2023/11/23 06:25:36;;;;;;;;;;;;;;;3.48;57.97;100798.69;4412055;32;33684;-85
2023/11/23 06:28:03;;;;;;;;;;;;;;;3.43;58.00;100787.38;4426420;32;33203;-85
2023/11/23 06:30:44;;;;;;;;;;;;;;;3.61;57.54;100783.91;4408086;32;32949;-85
2023/11/23 06:33:12;;;;;;;;;;;;;;;3.72;57.40;100787.41;4415013;32;32954;-85
2023/11/23 06:35:40;;;;;;;;;;;;;;;3.78;57.14;100776.94;4417711;32;33585;-85
2023/11/23 06:38:08;;;;;;;;;;;;;;;3.63;57.41;100782.16;4400182;32;34248;-85
2023/11/23 06:40:35;;;;;;;;;;;;;;;3.60;57.80;100782.16;4407637;32;33495;-85
2023/11/23 06:43:03;;;;;;;;;;;;;;;3.29;58.51;100776.06;4411216;32;34866;-85
2023/11/23 06:45:31;;;;;;;;;;;;;;;3.46;58.51;100773.44;4395648;32;32619;-85
2023/11/23 06:47:58;;;;;;;;;;;;;;;3.50;58.20;100767.34;4412185;32;34164;-85
2023/11/23 06:50:26;;;;;;;;;;;;;;;3.62;57.84;100767.38;4402450;32;33613;-85
2023/11/23 06:52:54;;;;;;;;;;;;;;;3.28;58.93;100764.75;4422820;32;34512;-84
2023/11/23 06:55:21;;;;;;;;;;;;;;;3.43;58.47;100760.41;4426503;32;33546;-87
2023/11/23 06:57:48;;;;;;;;;;;;;;;3.23;59.39;100762.97;4407533;32;34287;-85
2023/11/23 07:00:22;;;;;;;;;;;;;;;3.25;58.93;100771.69;4408005;32;34947;-85
2023/11/23 07:02:50;;;;;;;;;;;;;;;3.39;58.70;100763.88;4404443;32;34202;-84
2023/11/23 07:05:19;;;;;;;;;;;;;;;3.48;58.68;100758.66;4415415;32;32861;-85
2023/11/23 07:07:50;;;;;;;;;;;;;;;3.53;58.38;100751.69;4411526;32;33491;-86
2023/11/23 07:10:17;;;;;;;;;;;;;;;3.53;58.45;100751.69;4388676;32;33452;-86
2023/11/23 07:12:48;;;;;;;;;;;;;;;3.26;59.77;100753.41;4401212;32;34126;-87
2023/11/23 07:15:17;;;;;;;;;;;;;;;3.32;59.31;100762.97;4398297;32;34275;-87
2023/11/23 07:17:46;;;;;;;;;;;;;;;3.38;59.36;100759.53;4414782;32;34285;-87
2023/11/23 07:20:14;;;;;;;;;;;;;;;3.34;59.93;100762.13;4386690;32;32782;-87
2023/11/23 07:22:42;;;;;;;;;;;;;;;3.32;59.74;100758.66;4427887;32;35050;-87
2023/11/23 07:25:10;;;;;;;;;;;;;;;3.19;60.34;100766.47;4401151;32;32354;-86
2023/11/23 07:27:38;;;;;;;;;;;;;;;3.12;61.88;100765.56;4393459;32;34594;-86
2023/11/23 07:30:06;;;;;;;;;;;;;;;3.66;59.97;100765.63;4394497;32;32757;-87
2023/11/23 07:32:34;;;;;;;;;;;;;;;3.65;59.85;100771.72;4412208;32;33940;-87
2023/11/23 07:35:03;;;;;;;;;;;;;;;3.72;59.75;100771.72;4410763;32;33623;-86
2023/11/23 07:37:33;;;;;;;;;;;;;;;3.88;59.39;100769.09;4413704;32;34093;-87
2023/11/23 07:40:05;;;;;;;;;;;;;;;3.95;59.36;100760.38;4408595;32;32784;-87
2023/11/23 07:42:33;;;;;;;;;;;;;;;4.07;58.64;100761.22;4399925;32;35159;-86
2023/11/23 07:45:02;;;;;;;;;;;;;;;3.97;59.11;100763.84;4399074;32;32335;-87
2023/11/23 07:47:30;;;;;;;;;;;;;;;3.95;59.06;100755.16;4401323;32;34073;-87
2023/11/23 07:49:59;;;;;;;;;;;;;;;3.99;59.40;100751.69;4428584;32;34343;-86
2023/11/23 07:52:27;;;;;;;;;;;;;;;4.15;58.35;100753.38;4401291;32;33770;-87
2023/11/23 07:54:54;;;;;;;;;;;;;;;4.01;59.01;100744.69;4420516;32;33803;-87
2023/11/23 07:57:22;;;;;;;;;;;;;;;3.71;59.80;100740.38;4394931;32;32987;-87
2023/11/23 07:59:49;;;;;;;;;;;;;;;4.21;58.65;100740.28;4406234;32;34200;-86
2023/11/23 08:02:16;;;;;;;;;;;;;;;4.01;59.34;100736.84;4387573;32;33790;-87
2023/11/23 08:04:44;;;;;;;;;;;;;;;4.44;57.80;100729.75;4408302;32;32151;-87
2023/11/23 08:07:12;;;;;;;;;;;;;;;4.55;57.97;100732.31;4419232;32;34642;-87
2023/11/23 08:09:40;;;;;;;;;;;;;;;4.60;57.67;100730.53;4408365;32;34187;-87
2023/11/23 08:12:09;;;;;;;;;;;;;;;4.40;58.42;100737.63;4412888;32;34082;-86
2023/11/23 08:14:37;;;;;;;;;;;;;;;4.52;57.74;100729.72;4409011;32;33305;-87
2023/11/23 08:17:05;;;;;;;;;;;;;;;4.39;58.20;100730.66;4407787;32;33425;-87
2023/11/23 08:19:33;;;;;;;;;;;;;;;4.18;58.75;100736.78;4392631;32;33742;-87
2023/11/23 08:22:02;;;;;;;;;;;;;;;4.60;58.15;100731.44;4408216;32;33728;-87
2023/11/23 08:24:29;;;;;;;;;;;;;;;4.75;57.95;100725.25;4393880;32;34249;-87
2023/11/23 08:26:57;;;;;;;;;;;;;;;4.86;57.77;100705.13;4398672;32;33916;-87
2023/11/23 08:29:24;;;;;;;;;;;;;;;5.12;57.69;100704.06;4393602;32;34400;-87
2023/11/23 08:31:52;;;;;;;;;;;;;;;5.10;57.51;100708.47;4406380;32;35002;-87
2023/11/23 08:34:19;;;;;;;;;;;;;;;4.99;58.56;100713.78;4408096;32;32488;-88
2023/11/23 08:36:47;;;;;;;;;;;;;;;5.11;58.39;100707.59;4402510;32;34783;-87
2023/11/23 08:39:15;;;;;;;;;;;;;;;5.64;56.54;100698.41;4418851;32;34401;-87
2023/11/23 08:41:42;;;;;;;;;;;;;;;5.12;57.83;100701.47;4417769;32;35097;-87
2023/11/23 08:44:10;;;;;;;;;;;;;;;5.49;56.35;100698.56;4408026;32;32932;-87
2023/11/23 08:46:39;;;;;;;;;;;;;;;5.43;56.76;100693.38;4408958;32;34465;-87
2023/11/23 08:49:10;;;;;;;;;;;;;;;5.58;56.80;100695.88;4402096;32;33836;-85
2023/11/23 08:51:38;;;;;;;;;;;;;;;5.75;56.45;100696.59;4415766;32;33571;-87
2023/11/23 08:54:06;;;;;;;;;;;;;;;5.89;55.83;100699.94;4398036;32;33682;-87
2023/11/23 08:56:34;;;;;;;;;;;;;;;6.26;54.56;100691.69;4397055;32;33513;-87
2023/11/23 08:59:02;;;;;;;;;;;;;;;6.13;54.68;100700.59;4403908;32;34031;-87
2023/11/23 09:01:29;;;;;;;;;;;;;;;6.34;54.89;100702.97;4414858;32;35012;-86
2023/11/23 09:03:57;;;;;;;;;;;;;;;6.11;54.67;100690.09;4392567;32;32883;-86
2023/11/23 09:06:25;;;;;;;;;;;;;;;6.43;53.97;100688.88;4390812;32;34412;-86
2023/11/23 09:08:52;;;;;;;;;;;;;;;6.22;53.91;100696.97;4406544;32;33476;-86
2023/11/23 09:11:20;;;;;;;;;;;;;;;6.28;54.17;100692.56;4415980;32;33302;-87
2023/11/23 09:13:47;;;;;;;;;;;;;;;6.06;54.71;100691.06;4396846;32;33453;-86
2023/11/23 09:16:14;;;;;;;;;;;;;;;6.48;53.81;100694.91;4421921;32;34236;-86
2023/11/23 09:18:43;;;;;;;;;;;;;;;6.00;55.48;100692.00;4390157;32;34304;-88
2023/11/23 09:21:11;;;;;;;;;;;;;;;6.11;55.32;100684.00;4402338;32;33851;-90
2023/11/23 09:23:38;;;;;;;;;;;;;;;6.41;54.78;100682.78;4395241;32;33696;-87
2023/11/23 09:26:07;;;;;;;;;;;;;;;6.87;53.92;100683.00;4404717;32;33909;-90
2023/11/23 09:28:35;;;;;;;;;;;;;;;6.90;54.21;100667.22;4395756;32;33387;-87
2023/11/23 09:31:03;;;;;;;;;;;;;;;7.10;53.46;100671.31;4396589;32;32998;-87
2023/11/23 09:33:31;;;;;;;;;;;;;;;6.83;53.81;100669.94;4411384;32;34295;-86
2023/11/23 09:36:03;;;;;;;;;;;;;;;6.56;54.42;100665.97;4409950;32;33823;-86
2023/11/23 09:38:31;;;;;;;;;;;;;;;6.81;54.77;100667.34;4395642;32;33433;-86
2023/11/23 09:41:02;;;;;;;;;;;;;;;7.11;53.85;100659.91;4423229;32;34675;-86
2023/11/23 09:43:30;;;;;;;;;;;;;;;7.02;53.91;100663.53;4398372;32;32833;-87
2023/11/23 09:45:58;;;;;;;;;;;;;;;6.86;54.35;100669.91;4396539;32;32686;-86
2023/11/23 09:48:25;;;;;;;;;;;;;;;7.22;53.65;100665.88;4414722;32;34938;-86
2023/11/23 09:50:53;;;;;;;;;;;;;;;6.98;54.33;100659.25;4395666;32;34511;-86
2023/11/23 09:53:21;;;;;;;;;;;;;;;7.20;53.31;100662.38;4389871;32;31415;-87
2023/11/23 09:55:48;;;;;;;;;;;;;;;7.42;53.11;100650.63;4408399;32;33852;-86
2023/11/23 09:58:16;;;;;;;;;;;;;;;7.34;53.05;100642.00;4409358;32;34612;-87
2023/11/23 10:00:43;;;;;;;;;;;;;;;7.38;53.24;100637.56;4396242;32;33861;-86
2023/11/23 10:03:11;;;;;;;;;;;;;;;7.30;54.15;100645.56;4414913;32;31638;-86
2023/11/23 10:05:38;;;;;;;;;;;;;;;7.38;53.76;100642.81;4384344;32;32924;-86
2023/11/23 10:08:06;;;;;;;;;;;;;;;7.49;53.66;100640.00;4414974;32;32180;-87
2023/11/23 10:10:36;;;;;;;;;;;;;;;7.48;53.31;100628.62;4376652;32;33607;-87
2023/11/23 10:13:04;;;;;;;;;;;;;;;7.46;53.17;100624.31;4392036;32;32200;-87
2023/11/23 10:15:31;;;;;;;;;;;;;;;7.29;54.21;100607.06;4407283;32;34539;-87
2023/11/23 10:17:59;;;;;;;;;;;;;;;7.81;53.19;100600.84;4401438;32;34597;-87
2023/11/23 10:20:26;;;;;;;;;;;;;;;7.66;53.61;100602.00;4394986;32;32876;-87
2023/11/23 10:22:55;;;;;;;;;;;;;;;7.76;53.80;100610.59;4422648;32;34342;-86
2023/11/23 10:25:25;;;;;;;;;;;;;;;7.71;53.04;100599.28;4379206;32;32795;-87
2023/11/23 10:27:55;;;;;;;;;;;;;;;7.76;53.58;100591.31;4414821;32;34596;-87
2023/11/23 10:30:26;;;;;;;;;;;;;;;7.84;53.15;100595.53;4396614;32;34453;-87
2023/11/23 10:32:55;;;;;;;;;;;;;;;8.21;52.61;100584.25;4402371;32;32334;-87
2023/11/23 10:35:23;;;;;;;;;;;;;;;8.21;52.89;100578.97;4390027;32;33034;-87
2023/11/23 10:37:54;;;;;;;;;;;;;;;8.26;53.13;100571.88;4400471;32;34164;-87
2023/11/23 10:40:24;;;;;;;;;;;;;;;7.99;53.70;100568.06;4382624;32;33213;-87
2023/11/23 10:42:51;;;;;;;;;;;;;;;8.25;53.15;100559.59;4398957;32;32541;-87
2023/11/23 10:45:19;;;;;;;;;;;;;;;8.17;52.88;100553.66;4407313;32;34069;-87
2023/11/23 10:47:47;;;;;;;;;;;;;;;8.64;52.49;100551.72;4416610;32;34889;-87
2023/11/23 10:50:15;;;;;;;;;;;;;;;8.98;51.19;100550.00;4421509;32;32733;-87
2023/11/23 10:52:43;;;;;;;;;;;;;;;9.13;51.00;100534.72;4413463;32;32340;-87
2023/11/23 10:55:11;;;;;;;;;;;;;;;9.24;50.90;100530.03;4409048;32;34052;-87
2023/11/23 10:57:52;;;;;;;;;;;;;;;9.09;50.97;100527.78;4395548;32;32431;-87
2023/11/23 11:00:23;;;;;;;;;;;;;;;9.78;49.97;100518.87;4409630;32;34316;-87
2023/11/23 11:03:00;;;;;;;;;;;;;;;9.99;48.76;100515.59;4411726;32;33626;-87
2023/11/23 11:05:29;;;;;;;;;;;;;;;10.09;48.59;100507.41;4416549;32;33461;-87
2023/11/23 11:08:05;;;;;;;;;;;;;;;9.99;48.64;100515.59;4401696;32;34591;-87
2023/11/23 11:10:55;;;;;;;;;;;;;;;9.75;49.45;100505.75;4400606;32;35968;-89
2023/11/23 11:13:26;;;;;;;;;;;;;;;9.18;51.27;100504.69;4404291;32;33191;-90
2023/11/23 11:16:03;;;;;;;;;;;;;;;9.30;51.35;100500.84;4396621;32;33305;-87
2023/11/23 11:18:32;;;;;;;;;;;;;;;10.06;49.22;100495.13;4404391;32;34119;-87
2023/11/23 11:21:07;;;;;;;;;;;;;;;9.93;49.44;100496.44;4387931;32;33903;-86
2023/11/23 11:23:48;;;;;;;;;;;;;;;10.18;48.46;100491.28;4422113;32;33450;-86
2023/11/23 11:26:24;;;;;;;;;;;;;;;9.90;49.05;100486.84;4394356;32;34827;-86
2023/11/23 11:28:59;;;;;;;;;;;;;;;10.23;48.50;100478.81;4395880;32;34709;-85
2023/11/23 11:31:35;;;;;;;;;;;;;;;9.94;49.12;100467.37;4396146;32;34168;-86
2023/11/23 11:34:03;;;;;;;;;;;;;;;9.76;49.46;100467.94;4381309;32;34244;-86
2023/11/23 11:36:33;;;;;;;;;;;;;;;9.81;49.31;100466.00;4403604;32;34619;-86
2023/11/23 11:39:01;;;;;;;;;;;;;;;9.64;49.53;100457.75;4408161;32;34740;-86
2023/11/23 11:41:31;;;;;;;;;;;;;;;10.06;48.61;100450.28;4395189;32;34437;-86
2023/11/23 11:43:58;;;;;;;;;;;;;;;9.31;50.63;100447.28;4394960;32;33456;-86
2023/11/23 11:46:29;;;;;;;;;;;;;;;9.01;51.02;100446.31;4400968;32;34525;-86
2023/11/23 11:48:57;;;;;;;;;;;;;;;9.23;50.50;100443.97;4408028;32;33361;-85
2023/11/23 11:51:26;;;;;;;;;;;;;;;9.48;50.09;100441.50;4394427;32;33831;-86
2023/11/23 11:53:54;;;;;;;;;;;;;;;9.91;49.28;100434.94;4394953;32;33812;-86
2023/11/23 11:56:22;;;;;;;;;;;;;;;9.76;49.08;100436.28;4388133;32;33357;-86
2023/11/23 11:58:50;;;;;;;;;;;;;;;9.44;50.17;100432.81;4401296;32;34421;-86
2023/11/23 12:01:17;;;;;;;;;;;;;;;9.78;49.48;100430.94;4393698;32;33818;-86
2023/11/23 12:03:46;;;;;;;;;;;;;;;9.99;49.22;100417.97;4388648;32;32781;-85
2023/11/23 12:06:14;;;;;;;;;;;;;;;9.66;49.26;100417.22;4397812;32;34354;-86
2023/11/23 12:08:41;;;;;;;;;;;;;;;9.69;49.74;100413.66;4393964;32;33947;-86
2023/11/23 12:11:11;;;;;;;;;;;;;;;9.86;49.23;100403.44;4388906;32;33538;-85
2023/11/23 12:13:39;;;;;;;;;;;;;;;9.92;49.27;100400.63;4395318;32;33818;-85
2023/11/23 12:16:08;;;;;;;;;;;;;;;9.79;49.42;100393.13;4395005;32;32570;-86
2023/11/23 12:18:36;;;;;;;;;;;;;;;9.98;49.44;100387.22;4394168;32;33288;-85
2023/11/23 12:21:11;;;;;;;;;;;;;;;10.15;49.04;100385.81;4393044;32;34171;-85
2023/11/23 12:23:42;;;;;;;;;;;;;;;10.08;49.06;100379.03;4381849;32;32697;-85
2023/11/23 12:26:13;;;;;;;;;;;;;;;10.38;48.90;100380.66;4383288;32;35148;-85
2023/11/23 12:28:46;;;;;;;;;;;;;;;10.20;49.62;100373.31;4402221;32;35149;-85
2023/11/23 12:31:13;;;;;;;;;;;;;;;10.67;48.19;100377.03;4387421;32;34762;-86
2023/11/23 12:33:42;;;;;;;;;;;;;;;10.54;47.78;100377.50;4404548;32;34480;-85
2023/11/23 12:36:12;;;;;;;;;;;;;;;10.57;48.04;100372.13;4382155;32;33982;-86
2023/11/23 12:38:40;;;;;;;;;;;;;;;10.63;47.79;100353.41;4407003;32;33775;-85
2023/11/23 12:41:08;;;;;;;;;;;;;;;10.69;47.49;100345.31;4394845;32;33375;-86
2023/11/23 12:43:39;;;;;;;;;;;;;;;10.52;48.20;100338.81;4386777;32;33310;-86
2023/11/23 12:46:06;;;;;;;;;;;;;;;10.47;48.15;100324.91;4419053;32;33713;-87
2023/11/23 12:48:34;;;;;;;;;;;;;;;10.15;48.31;100327.75;4389413;32;33106;-86
2023/11/23 12:51:03;;;;;;;;;;;;;;;9.72;49.28;100335.28;4389690;32;34457;-87